sensor_id;sensor_type;location;lat;lon;timestamp;temperature;humidity
42479;DHT22;28110;47.080;9.476;2023-12-14T00:01:14;5.90;99.90
42479;DHT22;28110;47.080;9.476;2023-12-14T00:03:41;5.90;99.90
42479;DHT22;28110;47.080;9.476;2023-12-14T00:06:08;5.90;99.90
42479;DHT22;28110;47.080;9.476;2023-12-14T00:08:33;5.90;99.90
42479;DHT22;28110;47.080;9.476;2023-12-14T00:11:06;5.80;99.90
42479;DHT22;28110;47.080;9.476;2023-12-14T00:13:33;5.90;99.90
42479;DHT22;28110;47.080;9.476;2023-12-14T00:15:59;5.90;99.90
42479;DHT22;28110;47.080;9.476;2023-12-14T00:18:24;5.90;99.90
42479;DHT22;28110;47.080;9.476;2023-12-14T00:20:50;5.90;99.90
42479;DHT22;28110;47.080;9.476;2023-12-14T00:23:16;5.90;99.90
42479;DHT22;28110;47.080;9.476;2023-12-14T00:25:42;5.90;99.90
42479;DHT22;28110;47.080;9.476;2023-12-14T00:28:07;5.90;99.90
42479;DHT22;28110;47.080;9.476;2023-12-14T00:30:33;5.90;99.90
42479;DHT22;28110;47.080;9.476;2023-12-14T00:32:58;5.90;99.90
42479;DHT22;28110;47.080;9.476;2023-12-14T00:35:24;5.90;99.90
42479;DHT22;28110;47.080;9.476;2023-12-14T00:37:49;5.90;99.90
42479;DHT22;28110;47.080;9.476;2023-12-14T00:40:15;5.90;99.90
42479;DHT22;28110;47.080;9.476;2023-12-14T00:42:40;5.90;99.90
42479;DHT22;28110;47.080;9.476;2023-12-14T00:45:06;5.90;99.90
42479;DHT22;28110;47.080;9.476;2023-12-14T00:47:32;5.90;99.90
42479;DHT22;28110;47.080;9.476;2023-12-14T00:49:57;5.90;99.90
42479;DHT22;28110;47.080;9.476;2023-12-14T00:52:23;5.90;99.90
42479;DHT22;28110;47.080;9.476;2023-12-14T00:54:48;5.90;99.90
42479;DHT22;28110;47.080;9.476;2023-12-14T00:57:14;5.90;99.90
42479;DHT22;28110;47.080;9.476;2023-12-14T00:59:39;5.90;99.90
42479;DHT22;28110;47.080;9.476;2023-12-14T01:02:06;5.90;99.90
42479;DHT22;28110;47.080;9.476;2023-12-14T01:04:31;5.90;99.90
42479;DHT22;28110;47.080;9.476;2023-12-14T01:06:57;5.90;99.90
42479;DHT22;28110;47.080;9.476;2023-12-14T01:09:22;5.90;99.90
42479;DHT22;28110;47.080;9.476;2023-12-14T01:11:48;5.90;99.90
42479;DHT22;28110;47.080;9.476;2023-12-14T01:14:13;5.90;99.90
42479;DHT22;28110;47.080;9.476;2023-12-14T01:16:39;5.90;99.90
42479;DHT22;28110;47.080;9.476;2023-12-14T01:19:05;5.90;99.90
42479;DHT22;28110;47.080;9.476;2023-12-14T01:21:31;5.90;99.90
42479;DHT22;28110;47.080;9.476;2023-12-14T01:23:57;5.90;99.90
42479;DHT22;28110;47.080;9.476;2023-12-14T01:26:22;5.90;99.90
42479;DHT22;28110;47.080;9.476;2023-12-14T01:28:48;5.90;99.90
42479;DHT22;28110;47.080;9.476;2023-12-14T01:31:13;5.90;99.90
42479;DHT22;28110;47.080;9.476;2023-12-14T01:33:39;5.90;99.90
42479;DHT22;28110;47.080;9.476;2023-12-14T01:36:05;5.90;99.90
42479;DHT22;28110;47.080;9.476;2023-12-14T01:38:30;5.90;99.90
42479;DHT22;28110;47.080;9.476;2023-12-14T01:40:56;5.90;99.90
42479;DHT22;28110;47.080;9.476;2023-12-14T01:43:21;5.90;99.90
42479;DHT22;28110;47.080;9.476;2023-12-14T01:45:47;5.90;99.90
42479;DHT22;28110;47.080;9.476;2023-12-14T01:48:13;5.80;99.90
42479;DHT22;28110;47.080;9.476;2023-12-14T01:50:38;5.80;99.90
42479;DHT22;28110;47.080;9.476;2023-12-14T01:53:04;5.80;99.90
42479;DHT22;28110;47.080;9.476;2023-12-14T01:55:29;5.80;99.90
42479;DHT22;28110;47.080;9.476;2023-12-14T01:57:55;5.90;99.90
42479;DHT22;28110;47.080;9.476;2023-12-14T02:03:14;5.90;99.90
42479;DHT22;28110;47.080;9.476;2023-12-14T02:05:40;5.90;99.90
42479;DHT22;28110;47.080;9.476;2023-12-14T02:08:05;5.90;99.90
42479;DHT22;28110;47.080;9.476;2023-12-14T02:10:31;5.90;99.90
42479;DHT22;28110;47.080;9.476;2023-12-14T02:12:56;5.90;99.90
42479;DHT22;28110;47.080;9.476;2023-12-14T02:15:22;5.90;99.90
42479;DHT22;28110;47.080;9.476;2023-12-14T02:17:47;5.90;99.90
42479;DHT22;28110;47.080;9.476;2023-12-14T02:20:13;5.90;99.90
42479;DHT22;28110;47.080;9.476;2023-12-14T02:22:51;5.90;99.90
42479;DHT22;28110;47.080;9.476;2023-12-14T02:25:18;5.90;99.90
42479;DHT22;28110;47.080;9.476;2023-12-14T02:27:44;5.90;99.90
42479;DHT22;28110;47.080;9.476;2023-12-14T02:30:10;5.90;99.90
42479;DHT22;28110;47.080;9.476;2023-12-14T02:32:37;5.90;99.90
42479;DHT22;28110;47.080;9.476;2023-12-14T02:35:02;5.90;99.90
42479;DHT22;28110;47.080;9.476;2023-12-14T02:37:28;5.90;99.90
42479;DHT22;28110;47.080;9.476;2023-12-14T02:39:54;5.90;99.90
42479;DHT22;28110;47.080;9.476;2023-12-14T02:42:19;5.90;99.90
42479;DHT22;28110;47.080;9.476;2023-12-14T02:44:46;5.90;99.90
42479;DHT22;28110;47.080;9.476;2023-12-14T02:47:11;5.90;99.90
42479;DHT22;28110;47.080;9.476;2023-12-14T02:49:37;5.90;99.90
42479;DHT22;28110;47.080;9.476;2023-12-14T02:52:02;5.90;99.90
42479;DHT22;28110;47.080;9.476;2023-12-14T02:54:28;5.90;99.90
42479;DHT22;28110;47.080;9.476;2023-12-14T02:56:53;5.90;99.90
42479;DHT22;28110;47.080;9.476;2023-12-14T02:59:19;5.90;99.90
42479;DHT22;28110;47.080;9.476;2023-12-14T03:01:45;5.90;99.90
42479;DHT22;28110;47.080;9.476;2023-12-14T03:04:10;5.90;99.90
42479;DHT22;28110;47.080;9.476;2023-12-14T03:06:36;5.90;99.90
42479;DHT22;28110;47.080;9.476;2023-12-14T03:09:01;5.90;99.90
42479;DHT22;28110;47.080;9.476;2023-12-14T03:11:27;5.90;99.90
42479;DHT22;28110;47.080;9.476;2023-12-14T03:13:52;5.80;99.90
42479;DHT22;28110;47.080;9.476;2023-12-14T03:16:19;5.80;99.90
42479;DHT22;28110;47.080;9.476;2023-12-14T03:18:44;5.80;99.90
42479;DHT22;28110;47.080;9.476;2023-12-14T03:21:10;5.80;99.90
42479;DHT22;28110;47.080;9.476;2023-12-14T03:23:36;5.70;99.90
42479;DHT22;28110;47.080;9.476;2023-12-14T03:26:02;5.70;99.90
42479;DHT22;28110;47.080;9.476;2023-12-14T03:28:27;5.70;99.90
42479;DHT22;28110;47.080;9.476;2023-12-14T03:30:53;5.70;99.90
42479;DHT22;28110;47.080;9.476;2023-12-14T03:33:19;5.70;99.90
42479;DHT22;28110;47.080;9.476;2023-12-14T03:35:45;5.70;99.90
42479;DHT22;28110;47.080;9.476;2023-12-14T03:38:15;5.70;99.90
42479;DHT22;28110;47.080;9.476;2023-12-14T03:40:40;5.60;99.90
42479;DHT22;28110;47.080;9.476;2023-12-14T03:43:06;5.60;99.90
42479;DHT22;28110;47.080;9.476;2023-12-14T03:45:31;5.70;99.90
42479;DHT22;28110;47.080;9.476;2023-12-14T03:47:57;5.60;99.90
42479;DHT22;28110;47.080;9.476;2023-12-14T03:50:23;5.60;99.90
42479;DHT22;28110;47.080;9.476;2023-12-14T03:52:48;5.60;99.90
42479;DHT22;28110;47.080;9.476;2023-12-14T03:55:14;5.60;99.90
42479;DHT22;28110;47.080;9.476;2023-12-14T03:57:43;5.60;99.90
42479;DHT22;28110;47.080;9.476;2023-12-14T04:00:12;5.60;99.90
42479;DHT22;28110;47.080;9.476;2023-12-14T04:02:38;5.50;99.90
42479;DHT22;28110;47.080;9.476;2023-12-14T04:05:06;5.60;99.90
42479;DHT22;28110;47.080;9.476;2023-12-14T04:07:31;5.60;99.90
42479;DHT22;28110;47.080;9.476;2023-12-14T04:09:57;5.60;99.90
42479;DHT22;28110;47.080;9.476;2023-12-14T04:12:22;5.60;99.90
42479;DHT22;28110;47.080;9.476;2023-12-14T04:14:48;5.60;99.90
42479;DHT22;28110;47.080;9.476;2023-12-14T04:17:13;5.60;99.90
42479;DHT22;28110;47.080;9.476;2023-12-14T04:19:39;5.50;99.90
42479;DHT22;28110;47.080;9.476;2023-12-14T04:22:05;5.50;99.90
42479;DHT22;28110;47.080;9.476;2023-12-14T04:24:31;5.50;99.90
42479;DHT22;28110;47.080;9.476;2023-12-14T04:26:56;5.50;99.90
42479;DHT22;28110;47.080;9.476;2023-12-14T04:29:22;5.50;99.90
42479;DHT22;28110;47.080;9.476;2023-12-14T04:31:47;5.50;99.90
42479;DHT22;28110;47.080;9.476;2023-12-14T04:34:13;5.50;99.90
42479;DHT22;28110;47.080;9.476;2023-12-14T04:36:42;5.60;99.90
42479;DHT22;28110;47.080;9.476;2023-12-14T04:39:07;5.60;99.90
42479;DHT22;28110;47.080;9.476;2023-12-14T04:41:33;5.60;99.90
42479;DHT22;28110;47.080;9.476;2023-12-14T04:43:58;5.70;99.90
42479;DHT22;28110;47.080;9.476;2023-12-14T04:46:24;5.70;99.90
42479;DHT22;28110;47.080;9.476;2023-12-14T04:48:49;5.70;99.90
42479;DHT22;28110;47.080;9.476;2023-12-14T04:51:15;5.70;99.90
42479;DHT22;28110;47.080;9.476;2023-12-14T04:53:41;5.70;99.90
42479;DHT22;28110;47.080;9.476;2023-12-14T04:56:10;5.70;99.90
42479;DHT22;28110;47.080;9.476;2023-12-14T04:58:36;5.70;99.90
42479;DHT22;28110;47.080;9.476;2023-12-14T05:01:01;5.80;99.90
42479;DHT22;28110;47.080;9.476;2023-12-14T05:03:27;5.80;99.90
42479;DHT22;28110;47.080;9.476;2023-12-14T05:05:53;5.80;99.90
42479;DHT22;28110;47.080;9.476;2023-12-14T05:08:18;5.80;99.90
42479;DHT22;28110;47.080;9.476;2023-12-14T05:10:44;5.80;99.90
42479;DHT22;28110;47.080;9.476;2023-12-14T05:13:09;5.80;99.90
42479;DHT22;28110;47.080;9.476;2023-12-14T05:15:35;5.80;99.90
42479;DHT22;28110;47.080;9.476;2023-12-14T05:18:00;5.80;99.90
42479;DHT22;28110;47.080;9.476;2023-12-14T05:20:26;5.90;99.90
42479;DHT22;28110;47.080;9.476;2023-12-14T05:22:51;5.90;99.90
42479;DHT22;28110;47.080;9.476;2023-12-14T05:25:17;5.90;99.90
42479;DHT22;28110;47.080;9.476;2023-12-14T05:27:43;5.90;99.90
42479;DHT22;28110;47.080;9.476;2023-12-14T05:30:08;5.90;99.90
42479;DHT22;28110;47.080;9.476;2023-12-14T05:32:34;5.90;99.90
42479;DHT22;28110;47.080;9.476;2023-12-14T05:35:00;5.90;99.90
42479;DHT22;28110;47.080;9.476;2023-12-14T05:37:25;5.90;99.90
42479;DHT22;28110;47.080;9.476;2023-12-14T05:39:51;5.90;99.90
42479;DHT22;28110;47.080;9.476;2023-12-14T05:42:17;5.90;99.90
42479;DHT22;28110;47.080;9.476;2023-12-14T05:44:43;5.90;99.90
42479;DHT22;28110;47.080;9.476;2023-12-14T05:47:10;5.90;99.90
42479;DHT22;28110;47.080;9.476;2023-12-14T05:49:36;5.90;99.90
42479;DHT22;28110;47.080;9.476;2023-12-14T05:52:02;5.90;99.90
42479;DHT22;28110;47.080;9.476;2023-12-14T05:54:28;5.90;99.90
42479;DHT22;28110;47.080;9.476;2023-12-14T05:56:54;5.90;99.90
42479;DHT22;28110;47.080;9.476;2023-12-14T05:59:19;5.90;99.90
42479;DHT22;28110;47.080;9.476;2023-12-14T06:01:45;5.90;99.90
42479;DHT22;28110;47.080;9.476;2023-12-14T06:04:10;5.90;99.90
42479;DHT22;28110;47.080;9.476;2023-12-14T06:06:38;5.90;99.90
42479;DHT22;28110;47.080;9.476;2023-12-14T06:09:04;5.90;99.90
42479;DHT22;28110;47.080;9.476;2023-12-14T06:11:32;6.00;99.90
42479;DHT22;28110;47.080;9.476;2023-12-14T06:13:58;5.90;99.90
42479;DHT22;28110;47.080;9.476;2023-12-14T06:16:25;5.90;99.90
42479;DHT22;28110;47.080;9.476;2023-12-14T06:18:50;5.90;99.90
42479;DHT22;28110;47.080;9.476;2023-12-14T06:21:16;5.90;99.90
42479;DHT22;28110;47.080;9.476;2023-12-14T06:23:41;5.80;99.90
42479;DHT22;28110;47.080;9.476;2023-12-14T06:26:07;5.90;99.90
42479;DHT22;28110;47.080;9.476;2023-12-14T06:28:33;5.90;99.90
42479;DHT22;28110;47.080;9.476;2023-12-14T06:30:58;5.90;99.90
42479;DHT22;28110;47.080;9.476;2023-12-14T06:33:24;5.90;99.90
42479;DHT22;28110;47.080;9.476;2023-12-14T06:35:49;5.80;99.90
42479;DHT22;28110;47.080;9.476;2023-12-14T06:38:15;5.90;99.90
42479;DHT22;28110;47.080;9.476;2023-12-14T06:40:41;5.90;99.90
42479;DHT22;28110;47.080;9.476;2023-12-14T06:43:06;5.90;99.90
42479;DHT22;28110;47.080;9.476;2023-12-14T06:45:32;5.90;99.90
42479;DHT22;28110;47.080;9.476;2023-12-14T06:47:57;5.90;99.90
42479;DHT22;28110;47.080;9.476;2023-12-14T06:50:23;5.90;99.90
42479;DHT22;28110;47.080;9.476;2023-12-14T06:52:48;5.90;99.90
42479;DHT22;28110;47.080;9.476;2023-12-14T06:55:14;5.90;99.90
42479;DHT22;28110;47.080;9.476;2023-12-14T06:57:43;5.90;99.90
42479;DHT22;28110;47.080;9.476;2023-12-14T07:00:09;5.90;99.90
42479;DHT22;28110;47.080;9.476;2023-12-14T07:02:35;5.90;99.90
42479;DHT22;28110;47.080;9.476;2023-12-14T07:05:00;5.80;99.90
42479;DHT22;28110;47.080;9.476;2023-12-14T07:07:26;5.90;99.90
42479;DHT22;28110;47.080;9.476;2023-12-14T07:09:52;5.90;99.90
42479;DHT22;28110;47.080;9.476;2023-12-14T07:12:17;5.90;99.90
42479;DHT22;28110;47.080;9.476;2023-12-14T07:14:43;5.90;99.90
42479;DHT22;28110;47.080;9.476;2023-12-14T07:17:08;5.90;99.90
42479;DHT22;28110;47.080;9.476;2023-12-14T07:19:34;5.90;99.90
42479;DHT22;28110;47.080;9.476;2023-12-14T07:22:01;5.90;99.90
42479;DHT22;28110;47.080;9.476;2023-12-14T07:24:26;5.90;99.90
42479;DHT22;28110;47.080;9.476;2023-12-14T07:26:52;6.00;99.90
42479;DHT22;28110;47.080;9.476;2023-12-14T07:29:17;6.00;99.90
42479;DHT22;28110;47.080;9.476;2023-12-14T07:31:43;6.00;99.90
42479;DHT22;28110;47.080;9.476;2023-12-14T07:34:08;6.00;99.90
42479;DHT22;28110;47.080;9.476;2023-12-14T07:36:34;6.00;99.90
42479;DHT22;28110;47.080;9.476;2023-12-14T07:38:59;6.00;99.90
42479;DHT22;28110;47.080;9.476;2023-12-14T07:41:26;6.00;99.90
42479;DHT22;28110;47.080;9.476;2023-12-14T07:43:58;6.10;99.90
42479;DHT22;28110;47.080;9.476;2023-12-14T07:46:23;6.10;99.90
42479;DHT22;28110;47.080;9.476;2023-12-14T07:48:49;6.10;99.90
42479;DHT22;28110;47.080;9.476;2023-12-14T07:51:15;6.10;99.90
42479;DHT22;28110;47.080;9.476;2023-12-14T07:53:41;6.10;99.90
42479;DHT22;28110;47.080;9.476;2023-12-14T07:56:08;6.10;99.90
42479;DHT22;28110;47.080;9.476;2023-12-14T07:58:33;6.10;99.90
42479;DHT22;28110;47.080;9.476;2023-12-14T08:00:59;6.20;99.90
42479;DHT22;28110;47.080;9.476;2023-12-14T08:03:24;6.20;99.90
42479;DHT22;28110;47.080;9.476;2023-12-14T08:05:50;6.20;99.90
42479;DHT22;28110;47.080;9.476;2023-12-14T08:08:16;6.20;99.90
42479;DHT22;28110;47.080;9.476;2023-12-14T08:10:41;6.20;99.90
42479;DHT22;28110;47.080;9.476;2023-12-14T08:13:08;6.20;99.90
42479;DHT22;28110;47.080;9.476;2023-12-14T08:15:34;6.20;99.90
42479;DHT22;28110;47.080;9.476;2023-12-14T08:17:59;6.20;99.90
42479;DHT22;28110;47.080;9.476;2023-12-14T08:20:25;6.20;99.90
42479;DHT22;28110;47.080;9.476;2023-12-14T08:22:50;6.20;99.90
42479;DHT22;28110;47.080;9.476;2023-12-14T08:25:16;6.20;99.90
42479;DHT22;28110;47.080;9.476;2023-12-14T08:27:42;6.20;99.90
42479;DHT22;28110;47.080;9.476;2023-12-14T08:30:10;6.20;99.90
42479;DHT22;28110;47.080;9.476;2023-12-14T08:32:36;6.20;99.90
42479;DHT22;28110;47.080;9.476;2023-12-14T08:35:02;6.20;99.90
42479;DHT22;28110;47.080;9.476;2023-12-14T08:37:27;6.20;99.90
42479;DHT22;28110;47.080;9.476;2023-12-14T08:39:53;6.30;99.90
42479;DHT22;28110;47.080;9.476;2023-12-14T08:42:18;6.20;99.90
42479;DHT22;28110;47.080;9.476;2023-12-14T08:44:44;6.30;99.90
42479;DHT22;28110;47.080;9.476;2023-12-14T08:47:09;6.30;99.90
42479;DHT22;28110;47.080;9.476;2023-12-14T08:49:35;6.30;99.90
42479;DHT22;28110;47.080;9.476;2023-12-14T08:52:01;6.30;99.90
42479;DHT22;28110;47.080;9.476;2023-12-14T08:54:27;6.30;99.90
42479;DHT22;28110;47.080;9.476;2023-12-14T08:56:52;6.30;99.90
42479;DHT22;28110;47.080;9.476;2023-12-14T08:59:18;6.30;99.90
42479;DHT22;28110;47.080;9.476;2023-12-14T09:01:45;6.40;99.90
42479;DHT22;28110;47.080;9.476;2023-12-14T09:04:11;6.40;99.90
42479;DHT22;28110;47.080;9.476;2023-12-14T09:06:36;6.40;99.90
42479;DHT22;28110;47.080;9.476;2023-12-14T09:09:02;6.40;99.90
42479;DHT22;28110;47.080;9.476;2023-12-14T09:11:28;6.50;99.90
42479;DHT22;28110;47.080;9.476;2023-12-14T09:13:54;6.50;99.90
42479;DHT22;28110;47.080;9.476;2023-12-14T09:16:20;6.50;99.90
42479;DHT22;28110;47.080;9.476;2023-12-14T09:18:46;6.60;99.90
42479;DHT22;28110;47.080;9.476;2023-12-14T09:21:12;6.60;99.90
42479;DHT22;28110;47.080;9.476;2023-12-14T09:23:37;6.60;99.90
42479;DHT22;28110;47.080;9.476;2023-12-14T09:26:03;6.70;99.90
42479;DHT22;28110;47.080;9.476;2023-12-14T09:28:29;6.70;99.90
42479;DHT22;28110;47.080;9.476;2023-12-14T09:30:54;6.70;99.90
42479;DHT22;28110;47.080;9.476;2023-12-14T09:33:20;6.80;99.90
42479;DHT22;28110;47.080;9.476;2023-12-14T09:35:45;6.80;99.90
42479;DHT22;28110;47.080;9.476;2023-12-14T09:38:11;6.80;99.90
42479;DHT22;28110;47.080;9.476;2023-12-14T09:40:39;6.80;99.90
42479;DHT22;28110;47.080;9.476;2023-12-14T09:43:05;6.80;99.90
42479;DHT22;28110;47.080;9.476;2023-12-14T09:45:31;6.70;99.90
42479;DHT22;28110;47.080;9.476;2023-12-14T09:47:57;6.60;99.90
42479;DHT22;28110;47.080;9.476;2023-12-14T09:50:24;6.60;99.90
42479;DHT22;28110;47.080;9.476;2023-12-14T09:52:49;6.70;99.90
42479;DHT22;28110;47.080;9.476;2023-12-14T09:55:15;6.60;99.90
42479;DHT22;28110;47.080;9.476;2023-12-14T09:57:41;6.60;99.90
42479;DHT22;28110;47.080;9.476;2023-12-14T10:00:07;6.60;99.90
42479;DHT22;28110;47.080;9.476;2023-12-14T10:02:36;6.60;99.90
42479;DHT22;28110;47.080;9.476;2023-12-14T10:05:02;6.50;99.90
42479;DHT22;28110;47.080;9.476;2023-12-14T10:07:27;6.50;99.90
42479;DHT22;28110;47.080;9.476;2023-12-14T10:09:53;6.50;99.90
42479;DHT22;28110;47.080;9.476;2023-12-14T10:12:19;6.50;99.90
42479;DHT22;28110;47.080;9.476;2023-12-14T10:14:47;6.50;99.90
42479;DHT22;28110;47.080;9.476;2023-12-14T10:17:25;6.50;99.90
42479;DHT22;28110;47.080;9.476;2023-12-14T10:19:57;6.60;99.90
42479;DHT22;28110;47.080;9.476;2023-12-14T10:22:26;6.60;99.90
42479;DHT22;28110;47.080;9.476;2023-12-14T10:24:53;6.70;99.90
42479;DHT22;28110;47.080;9.476;2023-12-14T10:27:19;6.80;99.90
42479;DHT22;28110;47.080;9.476;2023-12-14T10:29:45;6.80;99.90
42479;DHT22;28110;47.080;9.476;2023-12-14T10:32:11;6.80;99.90
42479;DHT22;28110;47.080;9.476;2023-12-14T10:34:37;6.90;99.90
42479;DHT22;28110;47.080;9.476;2023-12-14T10:37:06;6.90;99.90
42479;DHT22;28110;47.080;9.476;2023-12-14T10:39:35;6.90;99.90
42479;DHT22;28110;47.080;9.476;2023-12-14T10:42:05;6.90;99.90
42479;DHT22;28110;47.080;9.476;2023-12-14T10:44:36;6.80;99.90
42479;DHT22;28110;47.080;9.476;2023-12-14T10:47:02;6.80;99.90
42479;DHT22;28110;47.080;9.476;2023-12-14T10:49:29;6.80;99.90
42479;DHT22;28110;47.080;9.476;2023-12-14T10:51:57;6.80;99.90
42479;DHT22;28110;47.080;9.476;2023-12-14T10:54:26;6.90;99.90
42479;DHT22;28110;47.080;9.476;2023-12-14T10:56:56;6.90;99.90
42479;DHT22;28110;47.080;9.476;2023-12-14T10:59:23;6.90;99.90
42479;DHT22;28110;47.080;9.476;2023-12-14T11:01:53;7.00;99.90
42479;DHT22;28110;47.080;9.476;2023-12-14T11:04:21;7.10;99.90
42479;DHT22;28110;47.080;9.476;2023-12-14T11:06:47;7.10;99.90
42479;DHT22;28110;47.080;9.476;2023-12-14T11:09:13;7.10;99.90
42479;DHT22;28110;47.080;9.476;2023-12-14T11:11:47;7.20;99.90
42479;DHT22;28110;47.080;9.476;2023-12-14T11:14:13;7.30;99.90
42479;DHT22;28110;47.080;9.476;2023-12-14T11:16:39;7.30;99.90
42479;DHT22;28110;47.080;9.476;2023-12-14T11:19:38;7.30;99.90
42479;DHT22;28110;47.080;9.476;2023-12-14T11:24:35;7.40;99.90
42479;DHT22;28110;47.080;9.476;2023-12-14T11:27:04;7.40;99.90
42479;DHT22;28110;47.080;9.476;2023-12-14T11:29:31;7.40;99.90
42479;DHT22;28110;47.080;9.476;2023-12-14T11:31:57;7.50;99.90
42479;DHT22;28110;47.080;9.476;2023-12-14T11:34:26;7.50;99.90
42479;DHT22;28110;47.080;9.476;2023-12-14T11:36:52;7.50;99.90
42479;DHT22;28110;47.080;9.476;2023-12-14T11:39:18;7.50;99.90
42479;DHT22;28110;47.080;9.476;2023-12-14T11:42:02;7.50;99.90
42479;DHT22;28110;47.080;9.476;2023-12-14T11:44:28;7.30;99.90
42479;DHT22;28110;47.080;9.476;2023-12-14T11:46:54;7.30;99.90
42479;DHT22;28110;47.080;9.476;2023-12-14T11:49:20;7.40;99.90
42479;DHT22;28110;47.080;9.476;2023-12-14T11:51:46;7.40;99.90
42479;DHT22;28110;47.080;9.476;2023-12-14T11:54:13;7.50;99.90
42479;DHT22;28110;47.080;9.476;2023-12-14T11:56:39;7.50;99.90
42479;DHT22;28110;47.080;9.476;2023-12-14T11:59:11;7.60;99.90
42479;DHT22;28110;47.080;9.476;2023-12-14T12:01:36;7.60;99.90
42479;DHT22;28110;47.080;9.476;2023-12-14T12:04:09;7.60;99.90
42479;DHT22;28110;47.080;9.476;2023-12-14T12:06:38;7.60;99.90
42479;DHT22;28110;47.080;9.476;2023-12-14T12:09:05;7.60;99.90
42479;DHT22;28110;47.080;9.476;2023-12-14T12:11:33;7.50;99.90
42479;DHT22;28110;47.080;9.476;2023-12-14T12:13:59;7.40;99.90
42479;DHT22;28110;47.080;9.476;2023-12-14T12:16:25;7.50;99.90
42479;DHT22;28110;47.080;9.476;2023-12-14T12:18:51;7.40;99.90
42479;DHT22;28110;47.080;9.476;2023-12-14T12:21:17;7.40;99.90
42479;DHT22;28110;47.080;9.476;2023-12-14T12:23:42;7.40;99.90
42479;DHT22;28110;47.080;9.476;2023-12-14T12:26:08;7.40;99.90
42479;DHT22;28110;47.080;9.476;2023-12-14T12:28:34;7.30;99.90
42479;DHT22;28110;47.080;9.476;2023-12-14T12:31:00;7.30;99.90
42479;DHT22;28110;47.080;9.476;2023-12-14T12:33:26;7.30;99.90
42479;DHT22;28110;47.080;9.476;2023-12-14T12:35:52;7.30;99.90
42479;DHT22;28110;47.080;9.476;2023-12-14T12:38:17;7.20;99.90
42479;DHT22;28110;47.080;9.476;2023-12-14T12:40:44;7.10;99.90
42479;DHT22;28110;47.080;9.476;2023-12-14T12:43:10;7.10;99.90
42479;DHT22;28110;47.080;9.476;2023-12-14T12:45:36;7.10;99.90
42479;DHT22;28110;47.080;9.476;2023-12-14T12:48:01;7.10;99.90
42479;DHT22;28110;47.080;9.476;2023-12-14T12:50:32;7.10;99.90
42479;DHT22;28110;47.080;9.476;2023-12-14T12:52:58;7.10;99.90
42479;DHT22;28110;47.080;9.476;2023-12-14T12:55:23;7.20;99.90
42479;DHT22;28110;47.080;9.476;2023-12-14T12:57:49;7.30;99.90
42479;DHT22;28110;47.080;9.476;2023-12-14T13:00:15;7.30;99.90
42479;DHT22;28110;47.080;9.476;2023-12-14T13:02:41;7.30;99.90
42479;DHT22;28110;47.080;9.476;2023-12-14T13:05:08;7.30;99.90
42479;DHT22;28110;47.080;9.476;2023-12-14T13:07:35;7.40;99.90
42479;DHT22;28110;47.080;9.476;2023-12-14T13:10:01;7.40;99.90
42479;DHT22;28110;47.080;9.476;2023-12-14T13:12:27;7.40;99.90
42479;DHT22;28110;47.080;9.476;2023-12-14T13:14:53;7.40;99.90
42479;DHT22;28110;47.080;9.476;2023-12-14T13:17:19;7.50;99.90
42479;DHT22;28110;47.080;9.476;2023-12-14T13:19:45;7.60;99.90
42479;DHT22;28110;47.080;9.476;2023-12-14T13:22:10;7.60;99.90
42479;DHT22;28110;47.080;9.476;2023-12-14T13:24:37;7.70;99.90
42479;DHT22;28110;47.080;9.476;2023-12-14T13:27:03;7.70;99.90
42479;DHT22;28110;47.080;9.476;2023-12-14T13:29:29;7.70;99.90
42479;DHT22;28110;47.080;9.476;2023-12-14T13:31:56;7.70;99.90
42479;DHT22;28110;47.080;9.476;2023-12-14T13:34:22;7.70;99.90
42479;DHT22;28110;47.080;9.476;2023-12-14T13:36:47;7.60;99.90
42479;DHT22;28110;47.080;9.476;2023-12-14T13:39:13;7.40;99.90
42479;DHT22;28110;47.080;9.476;2023-12-14T13:41:38;7.40;99.90
42479;DHT22;28110;47.080;9.476;2023-12-14T13:44:04;7.30;99.90
42479;DHT22;28110;47.080;9.476;2023-12-14T13:46:30;7.10;99.90
42479;DHT22;28110;47.080;9.476;2023-12-14T13:48:55;7.00;99.90
42479;DHT22;28110;47.080;9.476;2023-12-14T13:51:21;6.90;99.90
42479;DHT22;28110;47.080;9.476;2023-12-14T13:53:47;6.90;99.90
42479;DHT22;28110;47.080;9.476;2023-12-14T13:56:12;6.90;99.90
42479;DHT22;28110;47.080;9.476;2023-12-14T13:58:38;6.80;99.90
42479;DHT22;28110;47.080;9.476;2023-12-14T14:01:04;6.80;99.90
42479;DHT22;28110;47.080;9.476;2023-12-14T14:03:35;6.80;99.90
42479;DHT22;28110;47.080;9.476;2023-12-14T14:06:01;6.70;99.90
42479;DHT22;28110;47.080;9.476;2023-12-14T14:08:28;6.70;99.90
42479;DHT22;28110;47.080;9.476;2023-12-14T14:10:53;6.70;99.90
42479;DHT22;28110;47.080;9.476;2023-12-14T14:13:19;6.70;99.90
42479;DHT22;28110;47.080;9.476;2023-12-14T14:15:46;6.80;99.90
42479;DHT22;28110;47.080;9.476;2023-12-14T14:18:12;6.70;99.90
42479;DHT22;28110;47.080;9.476;2023-12-14T14:20:38;6.80;99.90
42479;DHT22;28110;47.080;9.476;2023-12-14T14:23:04;6.80;99.90
42479;DHT22;28110;47.080;9.476;2023-12-14T14:25:30;6.80;99.90
42479;DHT22;28110;47.080;9.476;2023-12-14T14:27:55;6.70;99.90
42479;DHT22;28110;47.080;9.476;2023-12-14T14:30:21;6.70;99.90
42479;DHT22;28110;47.080;9.476;2023-12-14T14:32:46;6.70;99.90
42479;DHT22;28110;47.080;9.476;2023-12-14T14:35:12;6.60;99.90
42479;DHT22;28110;47.080;9.476;2023-12-14T14:37:38;6.60;99.90
42479;DHT22;28110;47.080;9.476;2023-12-14T14:40:04;6.60;99.90
42479;DHT22;28110;47.080;9.476;2023-12-14T14:42:30;6.60;99.90
42479;DHT22;28110;47.080;9.476;2023-12-14T14:44:57;6.60;99.90
42479;DHT22;28110;47.080;9.476;2023-12-14T14:47:22;6.60;99.90
42479;DHT22;28110;47.080;9.476;2023-12-14T14:49:49;6.60;99.90
42479;DHT22;28110;47.080;9.476;2023-12-14T14:52:14;6.60;99.90
42479;DHT22;28110;47.080;9.476;2023-12-14T14:54:40;6.60;99.90
42479;DHT22;28110;47.080;9.476;2023-12-14T14:57:06;6.60;99.90
42479;DHT22;28110;47.080;9.476;2023-12-14T14:59:32;6.50;99.90
42479;DHT22;28110;47.080;9.476;2023-12-14T15:01:58;6.50;99.90
42479;DHT22;28110;47.080;9.476;2023-12-14T15:04:26;6.50;99.90
42479;DHT22;28110;47.080;9.476;2023-12-14T15:06:52;6.50;99.90
42479;DHT22;28110;47.080;9.476;2023-12-14T15:09:17;6.50;99.90
42479;DHT22;28110;47.080;9.476;2023-12-14T15:11:43;6.50;99.90
42479;DHT22;28110;47.080;9.476;2023-12-14T15:14:09;6.50;99.90
42479;DHT22;28110;47.080;9.476;2023-12-14T15:16:34;6.60;99.90
42479;DHT22;28110;47.080;9.476;2023-12-14T15:19:01;6.50;99.90
42479;DHT22;28110;47.080;9.476;2023-12-14T15:21:26;6.50;99.90
42479;DHT22;28110;47.080;9.476;2023-12-14T15:23:52;6.50;99.90
42479;DHT22;28110;47.080;9.476;2023-12-14T15:26:19;6.50;99.90
42479;DHT22;28110;47.080;9.476;2023-12-14T15:28:44;6.50;99.90
42479;DHT22;28110;47.080;9.476;2023-12-14T15:31:10;6.50;99.90
42479;DHT22;28110;47.080;9.476;2023-12-14T15:33:37;6.40;99.90
42479;DHT22;28110;47.080;9.476;2023-12-14T15:36:02;6.40;99.90
42479;DHT22;28110;47.080;9.476;2023-12-14T15:38:28;6.30;99.90
42479;DHT22;28110;47.080;9.476;2023-12-14T15:40:54;6.30;99.90
42479;DHT22;28110;47.080;9.476;2023-12-14T15:43:19;6.30;99.90